sensor_id;sensor_type;location;lat;lon;timestamp;pressure;altitude;pressure_sealevel;temperature;humidity
45078;BME280;60508;42.622;25.416;2023-05-16T00:00:07;96663.59;;;15.65;75.60
45078;BME280;60508;42.622;25.416;2023-05-16T00:02:35;96667.03;;;15.76;75.44
45078;BME280;60508;42.622;25.416;2023-05-16T00:05:03;96666.81;;;15.77;75.33
45078;BME280;60508;42.622;25.416;2023-05-16T00:07:30;96663.81;;;15.74;75.55
45078;BME280;60508;42.622;25.416;2023-05-16T00:09:56;96657.31;;;15.80;75.37
45078;BME280;60508;42.622;25.416;2023-05-16T00:12:23;96654.34;;;15.81;75.38
45078;BME280;60508;42.622;25.416;2023-05-16T00:14:50;96648.50;;;15.48;77.03
45078;BME280;60508;42.622;25.416;2023-05-16T00:17:25;96650.97;;;15.40;77.27
45078;BME280;60508;42.622;25.416;2023-05-16T00:19:54;96642.88;;;15.34;77.80
45078;BME280;60508;42.622;25.416;2023-05-16T00:22:23;96659.34;;;15.43;77.60
45078;BME280;60508;42.622;25.416;2023-05-16T00:24:50;96656.34;;;15.50;77.32
45078;BME280;60508;42.622;25.416;2023-05-16T00:27:24;96654.97;;;15.58;77.07
45078;BME280;60508;42.622;25.416;2023-05-16T00:29:51;96655.47;;;15.65;77.16
45078;BME280;60508;42.622;25.416;2023-05-16T00:32:17;96649.78;;;15.66;76.90
45078;BME280;60508;42.622;25.416;2023-05-16T00:34:44;96650.78;;;15.76;76.74
45078;BME280;60508;42.622;25.416;2023-05-16T00:37:12;96654.38;;;15.76;76.94
45078;BME280;60508;42.622;25.416;2023-05-16T00:39:39;96648.66;;;15.73;76.97
45078;BME280;60508;42.622;25.416;2023-05-16T00:42:06;96655.47;;;15.65;77.41
45078;BME280;60508;42.622;25.416;2023-05-16T00:44:39;96660.91;;;15.65;77.33
45078;BME280;60508;42.622;25.416;2023-05-16T00:47:06;96649.25;;;15.59;77.39
45078;BME280;60508;42.622;25.416;2023-05-16T00:49:33;96655.59;;;15.39;78.71
45078;BME280;60508;42.622;25.416;2023-05-16T00:52:06;96654.03;;;15.28;79.00
45078;BME280;60508;42.622;25.416;2023-05-16T00:54:33;96661.84;;;15.34;78.78
45078;BME280;60508;42.622;25.416;2023-05-16T00:56:59;96657.84;;;15.17;79.97
45078;BME280;60508;42.622;25.416;2023-05-16T00:59:26;96656.25;;;15.00;80.88
45078;BME280;60508;42.622;25.416;2023-05-16T01:01:53;96668.47;;;14.92;81.97
45078;BME280;60508;42.622;25.416;2023-05-16T01:04:28;96662.47;;;15.06;81.61
45078;BME280;60508;42.622;25.416;2023-05-16T01:06:56;96662.16;;;15.18;81.74
45078;BME280;60508;42.622;25.416;2023-05-16T01:09:23;96661.13;;;15.08;81.94
45078;BME280;60508;42.622;25.416;2023-05-16T01:12:15;96648.09;;;15.15;80.85
45078;BME280;60508;42.622;25.416;2023-05-16T01:15:09;96641.56;;;15.27;80.38
45078;BME280;60508;42.622;25.416;2023-05-16T01:18:01;96645.06;;;15.32;79.56
45078;BME280;60508;42.622;25.416;2023-05-16T01:20:40;96644.03;;;15.18;80.54
45078;BME280;60508;42.622;25.416;2023-05-16T01:28:38;96657.66;;;14.92;80.48
45078;BME280;60508;42.622;25.416;2023-05-16T01:31:05;96647.59;;;15.03;79.90
45078;BME280;60508;42.622;25.416;2023-05-16T01:33:33;96639.47;;;15.03;79.32
45078;BME280;60508;42.622;25.416;2023-05-16T01:44:10;96630.78;;;15.17;79.31
45078;BME280;60508;42.622;25.416;2023-05-16T01:46:44;96634.31;;;15.12;78.98
45078;BME280;60508;42.622;25.416;2023-05-16T01:49:57;96621.16;;;14.69;81.06
45078;BME280;60508;42.622;25.416;2023-05-16T01:52:43;96620.88;;;14.86;80.83
45078;BME280;60508;42.622;25.416;2023-05-16T01:55:50;96616.50;;;14.90;80.96
45078;BME280;60508;42.622;25.416;2023-05-16T01:58:17;96608.19;;;14.71;81.68
45078;BME280;60508;42.622;25.416;2023-05-16T02:00:45;96602.78;;;14.66;82.09
45078;BME280;60508;42.622;25.416;2023-05-16T02:03:11;96605.97;;;14.94;81.18
45078;BME280;60508;42.622;25.416;2023-05-16T02:05:48;96610.53;;;15.04;80.97
45078;BME280;60508;42.622;25.416;2023-05-16T02:08:14;96598.16;;;14.82;81.25
45078;BME280;60508;42.622;25.416;2023-05-16T02:10:42;96592.19;;;14.85;81.53
45078;BME280;60508;42.622;25.416;2023-05-16T02:13:08;96593.22;;;15.00;80.67
45078;BME280;60508;42.622;25.416;2023-05-16T02:15:36;96599.97;;;15.07;80.25
45078;BME280;60508;42.622;25.416;2023-05-16T02:18:02;96598.03;;;15.13;79.98
45078;BME280;60508;42.622;25.416;2023-05-16T02:20:30;96597.50;;;15.11;80.09
45078;BME280;60508;42.622;25.416;2023-05-16T02:22:56;96592.44;;;14.89;81.21
45078;BME280;60508;42.622;25.416;2023-05-16T02:25:24;96579.69;;;15.00;80.59
45078;BME280;60508;42.622;25.416;2023-05-16T02:27:52;96590.78;;;14.98;80.53
45078;BME280;60508;42.622;25.416;2023-05-16T02:30:19;96585.34;;;15.03;80.42
45078;BME280;60508;42.622;25.416;2023-05-16T02:32:45;96578.88;;;15.04;80.07
45078;BME280;60508;42.622;25.416;2023-05-16T02:35:12;96564.63;;;14.78;81.30
45078;BME280;60508;42.622;25.416;2023-05-16T02:37:39;96585.41;;;14.93;81.32
45078;BME280;60508;42.622;25.416;2023-05-16T02:40:07;96588.91;;;14.99;80.53
45078;BME280;60508;42.622;25.416;2023-05-16T02:42:36;96590.25;;;15.01;80.20
45078;BME280;60508;42.622;25.416;2023-05-16T02:45:03;96579.66;;;15.05;79.18
45078;BME280;60508;42.622;25.416;2023-05-16T02:47:30;96577.53;;;15.07;78.70
45078;BME280;60508;42.622;25.416;2023-05-16T02:50:03;96577.50;;;15.12;78.93
45078;BME280;60508;42.622;25.416;2023-05-16T02:52:33;96575.03;;;15.15;78.77
45078;BME280;60508;42.622;25.416;2023-05-16T02:55:00;96565.00;;;15.16;78.62
45078;BME280;60508;42.622;25.416;2023-05-16T02:57:35;96562.09;;;15.07;79.21
45078;BME280;60508;42.622;25.416;2023-05-16T03:00:02;96565.34;;;15.04;78.98
45078;BME280;60508;42.622;25.416;2023-05-16T03:02:31;96572.94;;;15.02;79.12
45078;BME280;60508;42.622;25.416;2023-05-16T03:04:57;96564.25;;;15.05;78.65
45078;BME280;60508;42.622;25.416;2023-05-16T03:07:24;96557.75;;;15.06;78.57
45078;BME280;60508;42.622;25.416;2023-05-16T03:09:51;96559.09;;;15.09;78.86
45078;BME280;60508;42.622;25.416;2023-05-16T03:12:18;96570.97;;;15.13;78.71
45078;BME280;60508;42.622;25.416;2023-05-16T03:14:44;96569.22;;;14.83;79.52
45078;BME280;60508;42.622;25.416;2023-05-16T03:17:11;96566.25;;;14.74;80.28
45078;BME280;60508;42.622;25.416;2023-05-16T03:19:45;96576.28;;;14.73;80.77
45078;BME280;60508;42.622;25.416;2023-05-16T03:22:12;96564.66;;;14.73;81.35
45078;BME280;60508;42.622;25.416;2023-05-16T03:24:42;96573.25;;;14.85;80.23
45078;BME280;60508;42.622;25.416;2023-05-16T03:27:21;96570.25;;;14.92;79.89
45078;BME280;60508;42.622;25.416;2023-05-16T03:29:49;96577.31;;;14.88;80.67
45078;BME280;60508;42.622;25.416;2023-05-16T03:32:16;96570.81;;;14.94;80.68
45078;BME280;60508;42.622;25.416;2023-05-16T03:34:42;96570.50;;;15.01;80.79
45078;BME280;60508;42.622;25.416;2023-05-16T03:37:09;96584.28;;;15.04;80.76
45078;BME280;60508;42.622;25.416;2023-05-16T03:39:43;96588.06;;;15.03;81.10
45078;BME280;60508;42.622;25.416;2023-05-16T03:42:10;96575.63;;;15.07;81.08
45078;BME280;60508;42.622;25.416;2023-05-16T03:44:37;96574.78;;;15.12;81.14
45078;BME280;60508;42.622;25.416;2023-05-16T03:47:06;96575.53;;;15.23;80.25
45078;BME280;60508;42.622;25.416;2023-05-16T03:49:33;96572.25;;;15.26;80.11
45078;BME280;60508;42.622;25.416;2023-05-16T03:52:00;96568.22;;;15.28;79.91
45078;BME280;60508;42.622;25.416;2023-05-16T03:54:27;96573.88;;;15.32;79.66
45078;BME280;60508;42.622;25.416;2023-05-16T03:56:54;96583.94;;;15.21;79.63
45078;BME280;60508;42.622;25.416;2023-05-16T03:59:20;96581.31;;;15.01;80.70
45078;BME280;60508;42.622;25.416;2023-05-16T04:01:48;96577.91;;;14.69;82.14
45078;BME280;60508;42.622;25.416;2023-05-16T04:04:15;96563.06;;;14.62;83.09
45078;BME280;60508;42.622;25.416;2023-05-16T04:06:42;96551.44;;;14.46;82.68
45078;BME280;60508;42.622;25.416;2023-05-16T04:09:16;96569.28;;;14.36;84.50
45078;BME280;60508;42.622;25.416;2023-05-16T04:11:43;96569.88;;;14.23;86.06
45078;BME280;60508;42.622;25.416;2023-05-16T04:14:11;96576.59;;;14.31;86.02
45078;BME280;60508;42.622;25.416;2023-05-16T04:16:45;96579.25;;;14.51;85.13
45078;BME280;60508;42.622;25.416;2023-05-16T04:19:12;96598.16;;;14.56;83.91
45078;BME280;60508;42.622;25.416;2023-05-16T04:21:39;96584.41;;;14.32;85.46
45078;BME280;60508;42.622;25.416;2023-05-16T04:24:14;96599.81;;;14.42;86.41
45078;BME280;60508;42.622;25.416;2023-05-16T04:26:41;96597.41;;;14.46;86.75
45078;BME280;60508;42.622;25.416;2023-05-16T04:29:07;96603.09;;;14.65;87.42
45078;BME280;60508;42.622;25.416;2023-05-16T04:31:34;96589.28;;;14.71;87.60
45078;BME280;60508;42.622;25.416;2023-05-16T04:34:05;96603.06;;;14.70;88.76
45078;BME280;60508;42.622;25.416;2023-05-16T04:36:39;96609.56;;;14.64;89.74
45078;BME280;60508;42.622;25.416;2023-05-16T04:39:06;96609.50;;;14.79;89.01
45078;BME280;60508;42.622;25.416;2023-05-16T04:41:33;96609.97;;;15.12;87.76
45078;BME280;60508;42.622;25.416;2023-05-16T04:44:08;96600.78;;;15.03;87.12
45078;BME280;60508;42.622;25.416;2023-05-16T04:46:36;96595.91;;;15.10;87.12
45078;BME280;60508;42.622;25.416;2023-05-16T04:49:03;96591.78;;;15.18;87.17
45078;BME280;60508;42.622;25.416;2023-05-16T04:51:30;96578.81;;;15.14;86.21
45078;BME280;60508;42.622;25.416;2023-05-16T04:53:59;96573.13;;;15.21;85.29
45078;BME280;60508;42.622;25.416;2023-05-16T04:56:33;96577.06;;;15.44;84.19
45078;BME280;60508;42.622;25.416;2023-05-16T04:59:00;96584.97;;;15.75;82.36
45078;BME280;60508;42.622;25.416;2023-05-16T05:01:27;96583.34;;;15.74;81.05
45078;BME280;60508;42.622;25.416;2023-05-16T05:03:53;96582.88;;;15.67;80.74
45078;BME280;60508;42.622;25.416;2023-05-16T05:06:20;96579.06;;;15.73;80.32
45078;BME280;60508;42.622;25.416;2023-05-16T05:08:54;96582.28;;;15.80;80.01
45078;BME280;60508;42.622;25.416;2023-05-16T05:11:21;96576.66;;;15.66;80.37
45078;BME280;60508;42.622;25.416;2023-05-16T05:13:48;96586.91;;;15.75;79.69
45078;BME280;60508;42.622;25.416;2023-05-16T05:16:15;96584.19;;;15.69;79.40
45078;BME280;60508;42.622;25.416;2023-05-16T05:18:42;96586.38;;;15.67;79.68
45078;BME280;60508;42.622;25.416;2023-05-16T05:21:09;96585.81;;;15.70;81.22
45078;BME280;60508;42.622;25.416;2023-05-16T05:23:36;96577.69;;;15.70;81.76
45078;BME280;60508;42.622;25.416;2023-05-16T05:26:03;96567.66;;;15.71;80.66
45078;BME280;60508;42.622;25.416;2023-05-16T05:28:38;96581.19;;;15.81;80.36
45078;BME280;60508;42.622;25.416;2023-05-16T05:31:04;96568.97;;;15.84;80.21
45078;BME280;60508;42.622;25.416;2023-05-16T05:33:31;96574.13;;;16.15;79.25
45078;BME280;60508;42.622;25.416;2023-05-16T05:35:58;96572.47;;;16.48;76.51
45078;BME280;60508;42.622;25.416;2023-05-16T05:38:25;96575.34;;;16.62;76.27
45078;BME280;60508;42.622;25.416;2023-05-16T05:40:51;96597.09;;;16.57;77.06
45078;BME280;60508;42.622;25.416;2023-05-16T05:43:18;96598.81;;;16.48;76.91
45078;BME280;60508;42.622;25.416;2023-05-16T05:45:45;96590.91;;;16.51;76.78
45078;BME280;60508;42.622;25.416;2023-05-16T05:48:20;96588.03;;;16.37;77.00
45078;BME280;60508;42.622;25.416;2023-05-16T05:50:47;96577.00;;;16.29;76.99
45078;BME280;60508;42.622;25.416;2023-05-16T05:53:13;96588.41;;;16.25;77.27
45078;BME280;60508;42.622;25.416;2023-05-16T05:55:41;96585.91;;;16.34;77.07
45078;BME280;60508;42.622;25.416;2023-05-16T05:58:14;96594.75;;;16.45;76.00
45078;BME280;60508;42.622;25.416;2023-05-16T06:00:40;96594.78;;;16.40;75.30
45078;BME280;60508;42.622;25.416;2023-05-16T06:03:07;96601.16;;;16.25;75.44
45078;BME280;60508;42.622;25.416;2023-05-16T06:05:42;96583.78;;;16.26;75.17
45078;BME280;60508;42.622;25.416;2023-05-16T06:08:09;96593.00;;;16.30;75.59
45078;BME280;60508;42.622;25.416;2023-05-16T06:10:36;96600.31;;;16.30;75.50
45078;BME280;60508;42.622;25.416;2023-05-16T06:13:03;96598.81;;;16.48;74.76
45078;BME280;60508;42.622;25.416;2023-05-16T06:15:30;96590.66;;;16.48;75.20
45078;BME280;60508;42.622;25.416;2023-05-16T06:17:56;96584.28;;;16.33;76.11
45078;BME280;60508;42.622;25.416;2023-05-16T06:20:31;96582.13;;;16.59;75.75
45078;BME280;60508;42.622;25.416;2023-05-16T06:22:58;96582.34;;;16.68;75.27
45078;BME280;60508;42.622;25.416;2023-05-16T06:25:24;96585.31;;;16.96;73.84
45078;BME280;60508;42.622;25.416;2023-05-16T06:27:51;96591.38;;;17.12;73.24
45078;BME280;60508;42.622;25.416;2023-05-16T06:30:27;96597.63;;;17.31;72.73
45078;BME280;60508;42.622;25.416;2023-05-16T06:32:54;96586.13;;;17.40;72.66
45078;BME280;60508;42.622;25.416;2023-05-16T06:35:21;96584.50;;;17.39;72.71
45078;BME280;60508;42.622;25.416;2023-05-16T06:37:48;96582.47;;;17.49;71.98
45078;BME280;60508;42.622;25.416;2023-05-16T06:40:15;96587.31;;;17.72;72.32
45078;BME280;60508;42.622;25.416;2023-05-16T06:42:50;96588.69;;;17.69;72.49
45078;BME280;60508;42.622;25.416;2023-05-16T06:45:17;96571.59;;;17.68;71.43
45078;BME280;60508;42.622;25.416;2023-05-16T06:47:44;96581.59;;;17.73;71.77
45078;BME280;60508;42.622;25.416;2023-05-16T06:50:11;96572.78;;;17.81;71.24
45078;BME280;60508;42.622;25.416;2023-05-16T06:52:45;96559.41;;;18.04;71.75
45078;BME280;60508;42.622;25.416;2023-05-16T06:55:12;96564.28;;;18.21;70.78
45078;BME280;60508;42.622;25.416;2023-05-16T06:57:39;96564.84;;;18.04;70.73
45078;BME280;60508;42.622;25.416;2023-05-16T07:00:06;96544.97;;;18.03;70.28
45078;BME280;60508;42.622;25.416;2023-05-16T07:02:33;96563.13;;;18.41;69.83
45078;BME280;60508;42.622;25.416;2023-05-16T07:05:00;96547.84;;;18.59;68.61
45078;BME280;60508;42.622;25.416;2023-05-16T07:07:27;96552.53;;;18.86;67.62
45078;BME280;60508;42.622;25.416;2023-05-16T07:10:01;96550.47;;;19.20;66.52
45078;BME280;60508;42.622;25.416;2023-05-16T07:12:29;96556.16;;;19.46;65.92
45078;BME280;60508;42.622;25.416;2023-05-16T07:14:56;96553.66;;;19.49;65.67
45078;BME280;60508;42.622;25.416;2023-05-16T07:17:23;96562.97;;;19.71;64.81
45078;BME280;60508;42.622;25.416;2023-05-16T07:19:49;96557.06;;;19.92;64.45
45078;BME280;60508;42.622;25.416;2023-05-16T07:22:16;96555.53;;;19.99;63.72
45078;BME280;60508;42.622;25.416;2023-05-16T07:24:43;96559.56;;;19.65;65.08
45078;BME280;60508;42.622;25.416;2023-05-16T07:27:18;96557.63;;;19.80;65.23
45078;BME280;60508;42.622;25.416;2023-05-16T07:29:44;96562.47;;;19.69;65.21
45078;BME280;60508;42.622;25.416;2023-05-16T07:32:11;96549.84;;;19.23;65.46
45078;BME280;60508;42.622;25.416;2023-05-16T07:34:46;96550.38;;;19.11;66.28
45078;BME280;60508;42.622;25.416;2023-05-16T07:37:12;96550.75;;;19.18;66.21
45078;BME280;60508;42.622;25.416;2023-05-16T07:39:40;96540.75;;;19.41;65.83
45078;BME280;60508;42.622;25.416;2023-05-16T07:42:07;96537.56;;;19.62;64.53
45078;BME280;60508;42.622;25.416;2023-05-16T07:44:34;96538.56;;;19.80;63.75
45078;BME280;60508;42.622;25.416;2023-05-16T07:47:13;96541.28;;;20.02;62.16
45078;BME280;60508;42.622;25.416;2023-05-16T07:49:44;96537.06;;;20.19;61.72
45078;BME280;60508;42.622;25.416;2023-05-16T07:52:13;96535.06;;;20.11;61.98
45078;BME280;60508;42.622;25.416;2023-05-16T07:54:42;96543.75;;;20.13;61.75
45078;BME280;60508;42.622;25.416;2023-05-16T07:57:22;96538.41;;;20.30;61.49
45078;BME280;60508;42.622;25.416;2023-05-16T07:59:53;96517.94;;;20.50;61.83
45078;BME280;60508;42.622;25.416;2023-05-16T08:02:21;96500.75;;;20.72;60.64
45078;BME280;60508;42.622;25.416;2023-05-16T08:04:49;96541.06;;;20.75;59.65
45078;BME280;60508;42.622;25.416;2023-05-16T08:07:16;96535.66;;;20.61;60.45
45078;BME280;60508;42.622;25.416;2023-05-16T08:09:51;96542.56;;;20.28;60.98
45078;BME280;60508;42.622;25.416;2023-05-16T08:12:18;96525.22;;;20.23;62.11
45078;BME280;60508;42.622;25.416;2023-05-16T08:14:45;96496.75;;;20.47;60.10
45078;BME280;60508;42.622;25.416;2023-05-16T08:17:12;96504.09;;;20.69;59.03
45078;BME280;60508;42.622;25.416;2023-05-16T08:19:39;96508.66;;;20.91;57.97
45078;BME280;60508;42.622;25.416;2023-05-16T08:22:06;96504.63;;;20.89;57.96
45078;BME280;60508;42.622;25.416;2023-05-16T08:24:34;96512.53;;;20.99;58.95
45078;BME280;60508;42.622;25.416;2023-05-16T08:27:08;96519.28;;;21.02;57.54
45078;BME280;60508;42.622;25.416;2023-05-16T08:29:34;96525.91;;;21.09;57.95
45078;BME280;60508;42.622;25.416;2023-05-16T08:32:02;96521.06;;;21.06;57.51
45078;BME280;60508;42.622;25.416;2023-05-16T08:34:36;96529.22;;;20.97;57.15
45078;BME280;60508;42.622;25.416;2023-05-16T08:37:03;96517.19;;;20.90;58.54
45078;BME280;60508;42.622;25.416;2023-05-16T08:39:30;96512.03;;;20.97;58.39
45078;BME280;60508;42.622;25.416;2023-05-16T08:42:06;96503.06;;;20.96;59.24
45078;BME280;60508;42.622;25.416;2023-05-16T08:44:33;96523.50;;;21.16;57.97
45078;BME280;60508;42.622;25.416;2023-05-16T08:47:11;96519.66;;;21.26;57.42
45078;BME280;60508;42.622;25.416;2023-05-16T08:49:42;96529.66;;;21.40;56.75
45078;BME280;60508;42.622;25.416;2023-05-16T08:52:09;96529.75;;;21.00;57.01
45078;BME280;60508;42.622;25.416;2023-05-16T08:54:36;96515.19;;;20.73;57.86
45078;BME280;60508;42.622;25.416;2023-05-16T08:57:05;96515.56;;;20.97;58.99
45078;BME280;60508;42.622;25.416;2023-05-16T08:59:39;96505.34;;;21.21;57.50
45078;BME280;60508;42.622;25.416;2023-05-16T09:02:07;96521.78;;;21.47;56.81
45078;BME280;60508;42.622;25.416;2023-05-16T09:04:36;96507.81;;;21.83;55.13
45078;BME280;60508;42.622;25.416;2023-05-16T09:07:09;96493.78;;;22.02;55.17
45078;BME280;60508;42.622;25.416;2023-05-16T09:09:36;96500.47;;;22.49;54.10
45078;BME280;60508;42.622;25.416;2023-05-16T09:12:04;96500.25;;;22.92;53.84
45078;BME280;60508;42.622;25.416;2023-05-16T09:14:38;96503.53;;;23.15;52.76
45078;BME280;60508;42.622;25.416;2023-05-16T09:17:06;96491.25;;;23.22;53.49
45078;BME280;60508;42.622;25.416;2023-05-16T09:19:40;96486.44;;;23.40;52.50
45078;BME280;60508;42.622;25.416;2023-05-16T09:22:08;96494.59;;;22.68;53.21
45078;BME280;60508;42.622;25.416;2023-05-16T09:24:42;96492.63;;;22.30;54.86
45078;BME280;60508;42.622;25.416;2023-05-16T09:27:10;96490.59;;;21.92;55.58
45078;BME280;60508;42.622;25.416;2023-05-16T09:29:49;96501.50;;;22.09;55.25
45078;BME280;60508;42.622;25.416;2023-05-16T09:32:17;96503.91;;;22.19;54.14
45078;BME280;60508;42.622;25.416;2023-05-16T09:34:48;96513.72;;;22.29;54.37
45078;BME280;60508;42.622;25.416;2023-05-16T09:37:22;96512.25;;;22.23;53.49
45078;BME280;60508;42.622;25.416;2023-05-16T09:39:51;96518.19;;;22.42;53.18
45078;BME280;60508;42.622;25.416;2023-05-16T09:42:19;96516.94;;;22.31;53.45
45078;BME280;60508;42.622;25.416;2023-05-16T09:44:54;96512.44;;;22.74;54.06
45078;BME280;60508;42.622;25.416;2023-05-16T09:47:22;96512.25;;;23.18;52.12
45078;BME280;60508;42.622;25.416;2023-05-16T09:49:52;96524.47;;;23.20;51.83
45078;BME280;60508;42.622;25.416;2023-05-16T09:52:28;96513.88;;;23.61;50.13
45078;BME280;60508;42.622;25.416;2023-05-16T09:54:55;96523.91;;;23.99;48.54
45078;BME280;60508;42.622;25.416;2023-05-16T09:57:23;96526.31;;;24.00;49.41
45078;BME280;60508;42.622;25.416;2023-05-16T09:59:52;96515.97;;;23.85;48.04
45078;BME280;60508;42.622;25.416;2023-05-16T10:02:19;96509.75;;;23.97;48.07
45078;BME280;60508;42.622;25.416;2023-05-16T10:04:55;96498.88;;;24.00;47.87
45078;BME280;60508;42.622;25.416;2023-05-16T10:07:22;96505.72;;;24.28;48.43
45078;BME280;60508;42.622;25.416;2023-05-16T10:09:49;96503.53;;;24.33;48.22
45078;BME280;60508;42.622;25.416;2023-05-16T10:12:20;96493.63;;;24.08;46.81
45078;BME280;60508;42.622;25.416;2023-05-16T10:15:00;96487.91;;;24.46;45.41
45078;BME280;60508;42.622;25.416;2023-05-16T10:17:33;96479.00;;;24.74;43.18
45078;BME280;60508;42.622;25.416;2023-05-16T10:20:02;96468.72;;;24.95;42.71
45078;BME280;60508;42.622;25.416;2023-05-16T10:22:42;96457.50;;;24.88;41.66
45078;BME280;60508;42.622;25.416;2023-05-16T10:25:14;96454.19;;;24.58;40.62
45078;BME280;60508;42.622;25.416;2023-05-16T10:27:43;96441.66;;;24.36;41.32
45078;BME280;60508;42.622;25.416;2023-05-16T10:30:17;96441.63;;;24.23;42.06
45078;BME280;60508;42.622;25.416;2023-05-16T10:32:45;96441.41;;;24.16;42.21
45078;BME280;60508;42.622;25.416;2023-05-16T10:35:12;96445.28;;;24.03;42.43
45078;BME280;60508;42.622;25.416;2023-05-16T10:37:40;96450.00;;;24.27;41.92
45078;BME280;60508;42.622;25.416;2023-05-16T10:40:08;96432.34;;;24.62;41.81
45078;BME280;60508;42.622;25.416;2023-05-16T10:42:59;96427.84;;;24.94;42.31
45078;BME280;60508;42.622;25.416;2023-05-16T10:45:26;96413.19;;;24.90;40.90
45078;BME280;60508;42.622;25.416;2023-05-16T10:48:02;96418.22;;;25.00;42.73
45078;BME280;60508;42.622;25.416;2023-05-16T10:50:36;96423.94;;;24.95;41.25
45078;BME280;60508;42.622;25.416;2023-05-16T10:53:14;96397.88;;;24.76;40.67
45078;BME280;60508;42.622;25.416;2023-05-16T11:09:20;96384.69;;;24.45;42.39
45078;BME280;60508;42.622;25.416;2023-05-16T11:17:11;96385.13;;;23.10;45.00
45078;BME280;60508;42.622;25.416;2023-05-16T11:19:50;96369.13;;;23.12;45.51
45078;BME280;60508;42.622;25.416;2023-05-16T11:25:03;96374.13;;;23.31;46.97
45078;BME280;60508;42.622;25.416;2023-05-16T11:27:44;96371.94;;;23.03;47.19
45078;BME280;60508;42.622;25.416;2023-05-16T11:30:15;96370.22;;;22.90;48.25
45078;BME280;60508;42.622;25.416;2023-05-16T11:32:47;96375.19;;;22.96;48.63
45078;BME280;60508;42.622;25.416;2023-05-16T11:35:22;96371.09;;;23.11;48.38
45078;BME280;60508;42.622;25.416;2023-05-16T11:37:49;96388.81;;;23.05;48.23
45078;BME280;60508;42.622;25.416;2023-05-16T11:40:16;96377.88;;;23.05;48.85
45078;BME280;60508;42.622;25.416;2023-05-16T11:42:52;96386.38;;;23.12;47.65
45078;BME280;60508;42.622;25.416;2023-05-16T11:45:21;96379.81;;;23.05;48.89
45078;BME280;60508;42.622;25.416;2023-05-16T11:47:50;96369.13;;;23.12;49.37
45078;BME280;60508;42.622;25.416;2023-05-16T11:50:26;96369.81;;;23.09;47.95
45078;BME280;60508;42.622;25.416;2023-05-16T11:52:53;96373.81;;;23.11;47.69
45078;BME280;60508;42.622;25.416;2023-05-16T11:55:25;96382.06;;;23.03;47.94
45078;BME280;60508;42.622;25.416;2023-05-16T11:57:53;96390.09;;;22.87;48.31
45078;BME280;60508;42.622;25.416;2023-05-16T12:00:21;96380.72;;;22.88;48.04
45078;BME280;60508;42.622;25.416;2023-05-16T12:02:50;96386.31;;;22.70;48.09
45078;BME280;60508;42.622;25.416;2023-05-16T12:05:25;96373.53;;;22.53;48.48
45078;BME280;60508;42.622;25.416;2023-05-16T12:07:54;96361.97;;;22.48;48.15
45078;BME280;60508;42.622;25.416;2023-05-16T12:10:22;96352.72;;;22.61;47.61
45078;BME280;60508;42.622;25.416;2023-05-16T12:12:56;96356.06;;;22.67;48.08
45078;BME280;60508;42.622;25.416;2023-05-16T12:15:24;96344.72;;;22.77;48.18
45078;BME280;60508;42.622;25.416;2023-05-16T12:17:50;96345.31;;;22.83;47.59
45078;BME280;60508;42.622;25.416;2023-05-16T12:20:17;96335.31;;;22.87;46.73
45078;BME280;60508;42.622;25.416;2023-05-16T12:22:45;96337.72;;;22.88;47.75
45078;BME280;60508;42.622;25.416;2023-05-16T12:25:31;96338.50;;;22.89;47.06
45078;BME280;60508;42.622;25.416;2023-05-16T12:28:06;96345.22;;;22.70;47.80
45078;BME280;60508;42.622;25.416;2023-05-16T12:30:33;96349.59;;;22.71;48.43
45078;BME280;60508;42.622;25.416;2023-05-16T12:33:03;96357.00;;;22.71;48.57
45078;BME280;60508;42.622;25.416;2023-05-16T12:35:34;96354.31;;;22.62;48.00
45078;BME280;60508;42.622;25.416;2023-05-16T12:38:06;96362.72;;;22.57;47.67
45078;BME280;60508;42.622;25.416;2023-05-16T12:40:42;96364.38;;;22.49;47.50
45078;BME280;60508;42.622;25.416;2023-05-16T12:43:20;96369.69;;;22.54;48.30
45078;BME280;60508;42.622;25.416;2023-05-16T12:45:56;96365.03;;;22.76;48.37
45078;BME280;60508;42.622;25.416;2023-05-16T12:48:31;96373.56;;;22.74;48.71
45078;BME280;60508;42.622;25.416;2023-05-16T12:51:09;96368.34;;;22.82;48.65
45078;BME280;60508;42.622;25.416;2023-05-16T12:53:47;96369.50;;;22.81;47.91
45078;BME280;60508;42.622;25.416;2023-05-16T12:56:23;96374.16;;;22.80;47.69
45078;BME280;60508;42.622;25.416;2023-05-16T12:58:50;96384.66;;;22.99;47.98
45078;BME280;60508;42.622;25.416;2023-05-16T13:01:17;96385.00;;;22.97;48.06
45078;BME280;60508;42.622;25.416;2023-05-16T13:03:44;96381.03;;;22.65;48.18
45078;BME280;60508;42.622;25.416;2023-05-16T13:06:11;96383.00;;;22.56;48.03
45078;BME280;60508;42.622;25.416;2023-05-16T13:08:38;96371.53;;;22.41;49.07
45078;BME280;60508;42.622;25.416;2023-05-16T13:11:05;96370.38;;;22.42;49.21
45078;BME280;60508;42.622;25.416;2023-05-16T13:13:39;96374.88;;;22.47;50.22
45078;BME280;60508;42.622;25.416;2023-05-16T13:16:06;96370.25;;;22.39;51.59
45078;BME280;60508;42.622;25.416;2023-05-16T13:18:33;96367.31;;;22.44;52.02
45078;BME280;60508;42.622;25.416;2023-05-16T13:21:02;96371.59;;;22.54;51.71
45078;BME280;60508;42.622;25.416;2023-05-16T13:23:31;96375.19;;;22.46;51.38
45078;BME280;60508;42.622;25.416;2023-05-16T13:26:09;96382.56;;;22.54;51.24
45078;BME280;60508;42.622;25.416;2023-05-16T13:28:35;96370.41;;;22.64;51.37
45078;BME280;60508;42.622;25.416;2023-05-16T13:31:02;96366.91;;;22.84;50.84
45078;BME280;60508;42.622;25.416;2023-05-16T13:33:29;96357.41;;;23.24;50.45
45078;BME280;60508;42.622;25.416;2023-05-16T13:36:03;96337.03;;;23.79;48.63
45078;BME280;60508;42.622;25.416;2023-05-16T13:38:30;96353.34;;;24.09;47.94